createdAt,value
2022-12-25T00:00:02.133Z,7
2022-12-25T00:01:02.039Z,7
2022-12-25T00:02:02.123Z,6.9
2022-12-25T00:03:02.117Z,6.9
2022-12-25T00:04:02.353Z,6.9
2022-12-25T00:05:02.247Z,6.9
2022-12-25T00:06:02.177Z,6.9
2022-12-25T00:07:02.113Z,6.9
2022-12-25T00:08:02.027Z,6.9
2022-12-25T00:09:01.953Z,6.8
2022-12-25T00:10:01.862Z,6.8
2022-12-25T00:11:01.810Z,6.8
2022-12-25T00:12:01.704Z,6.8
2022-12-25T00:13:01.555Z,6.7
2022-12-25T00:14:01.526Z,6.7
2022-12-25T00:15:01.398Z,6.7
2022-12-25T00:16:01.393Z,6.7
2022-12-25T00:17:01.505Z,6.8
2022-12-25T00:18:01.392Z,6.8
2022-12-25T00:19:01.397Z,6.6
2022-12-25T00:20:02.307Z,6.7
2022-12-25T00:21:02.238Z,6.8
2022-12-25T00:22:02.217Z,6.7
2022-12-25T00:23:02.134Z,6.8
2022-12-25T00:24:02.070Z,6.7
2022-12-25T00:25:01.993Z,6.7
2022-12-25T00:26:01.899Z,6.7
2022-12-25T00:27:01.869Z,6.7
2022-12-25T00:28:01.801Z,6.7
2022-12-25T00:29:01.751Z,6.7
2022-12-25T00:30:01.775Z,6.7
2022-12-25T00:31:01.663Z,6.8
2022-12-25T00:32:01.897Z,6.8
2022-12-25T00:33:01.795Z,6.8
2022-12-25T00:34:01.741Z,6.8
2022-12-25T00:35:01.627Z,6.8
2022-12-25T00:36:01.541Z,6.7
2022-12-25T00:37:01.429Z,6.8
2022-12-25T00:38:01.382Z,6.8
2022-12-25T00:39:01.324Z,6.8
2022-12-25T00:40:01.317Z,6.8
2022-12-25T00:41:01.334Z,6.7
2022-12-25T00:42:01.353Z,6.9
2022-12-25T00:43:01.405Z,6.8
2022-12-25T00:44:01.332Z,6.8
2022-12-25T00:45:01.496Z,6.8
2022-12-25T00:46:01.388Z,6.8
2022-12-25T00:47:01.494Z,6.8
2022-12-25T00:48:01.487Z,6.7
2022-12-25T00:49:01.403Z,6.7
2022-12-25T00:50:01.373Z,6.8
2022-12-25T00:51:01.359Z,6.8
2022-12-25T00:52:02.295Z,6.8
2022-12-25T00:53:02.277Z,6.9
2022-12-25T00:54:02.199Z,6.8
2022-12-25T00:55:02.109Z,6.8
2022-12-25T00:56:02.049Z,6.8
2022-12-25T00:57:01.979Z,6.9
2022-12-25T00:58:01.942Z,6.8
2022-12-25T00:59:01.997Z,6.9
2022-12-25T01:00:01.818Z,6.8
2022-12-25T01:01:01.777Z,6.9
2022-12-25T01:02:01.590Z,6.8
2022-12-25T01:03:02.022Z,6.9
2022-12-25T01:04:02.251Z,6.9
2022-12-25T01:05:02.158Z,6.9
2022-12-25T01:06:02.122Z,6.9
2022-12-25T01:07:02.064Z,6.9
2022-12-25T01:08:01.975Z,7
2022-12-25T01:09:01.882Z,6.9
2022-12-25T01:10:01.798Z,6.9
2022-12-25T01:11:01.732Z,6.9
2022-12-25T01:12:01.666Z,7
2022-12-25T01:13:01.548Z,6.9
2022-12-25T01:14:01.537Z,7
2022-12-25T01:15:01.463Z,7
2022-12-25T01:16:01.391Z,7
2022-12-25T01:17:02.073Z,6.9
2022-12-25T01:18:07.358Z,7
2022-12-25T01:19:01.364Z,7
2022-12-25T01:20:01.336Z,7
2022-12-25T01:21:01.333Z,6.9
2022-12-25T01:22:01.335Z,7
2022-12-25T01:23:01.379Z,7
2022-12-25T01:24:02.297Z,7
2022-12-25T01:25:02.266Z,7
2022-12-25T01:26:02.185Z,7
2022-12-25T01:27:02.105Z,7
2022-12-25T01:28:02.015Z,7
2022-12-25T01:29:01.953Z,7
2022-12-25T01:30:01.871Z,7
2022-12-25T01:31:01.753Z,7
2022-12-25T01:32:01.620Z,7
2022-12-25T01:33:01.571Z,7.1
2022-12-25T01:34:01.564Z,7
2022-12-25T01:35:01.417Z,7.1
2022-12-25T01:36:01.336Z,7.1
2022-12-25T01:37:02.288Z,7
2022-12-25T01:38:02.228Z,7
2022-12-25T01:39:02.171Z,7
2022-12-25T01:40:02.095Z,7
2022-12-25T01:41:02.027Z,7.1
2022-12-25T01:42:01.928Z,7
2022-12-25T01:43:01.875Z,7.1
2022-12-25T01:44:01.814Z,7.1
2022-12-25T01:45:01.725Z,7
2022-12-25T01:46:01.650Z,7
2022-12-25T01:47:01.656Z,7
2022-12-25T01:48:01.585Z,7
2022-12-25T01:49:01.495Z,7.1
2022-12-25T01:50:01.415Z,7.1
2022-12-25T01:51:01.341Z,7.1
2022-12-25T01:52:02.282Z,7.1
2022-12-25T01:53:02.237Z,7
2022-12-25T01:54:02.170Z,7
2022-12-25T01:55:02.095Z,7
2022-12-25T01:56:02.041Z,7
2022-12-25T01:57:01.986Z,7
2022-12-25T01:58:01.956Z,7
2022-12-25T01:59:01.908Z,7
2022-12-25T02:00:01.878Z,7
2022-12-25T02:01:01.835Z,7
2022-12-25T02:02:01.883Z,6.9
2022-12-25T02:03:02.079Z,6.9
2022-12-25T02:04:01.959Z,7
2022-12-25T02:05:01.903Z,6.8
2022-12-25T02:06:01.853Z,6.9
2022-12-25T02:07:01.791Z,6.9
2022-12-25T02:08:01.658Z,6.9
2022-12-25T02:09:01.603Z,6.9
2022-12-25T02:10:01.527Z,6.9
2022-12-25T02:11:01.427Z,6.8
2022-12-25T02:12:01.365Z,6.9
2022-12-25T02:13:01.333Z,6.9
2022-12-25T02:14:02.288Z,6.9
2022-12-25T02:15:05.608Z,6.8
2022-12-25T02:16:02.292Z,6.9
2022-12-25T02:17:01.335Z,6.9
2022-12-25T02:18:02.283Z,6.9
2022-12-25T02:19:02.232Z,6.9
2022-12-25T02:20:02.182Z,6.8
2022-12-25T02:21:02.155Z,6.8
2022-12-25T02:22:02.056Z,7
2022-12-25T02:23:01.993Z,7
2022-12-25T02:24:01.889Z,7
2022-12-25T02:25:01.757Z,7
2022-12-25T02:26:01.714Z,7
2022-12-25T02:27:01.673Z,6.9
2022-12-25T02:28:01.564Z,6.9
2022-12-25T02:29:01.469Z,6.9
2022-12-25T02:30:01.423Z,7
2022-12-25T02:31:01.410Z,6.9
2022-12-25T02:32:02.269Z,6.8
2022-12-25T02:33:02.179Z,6.9
2022-12-25T02:34:02.114Z,6.8
2022-12-25T02:35:02.071Z,6.9
2022-12-25T02:36:01.983Z,6.8
2022-12-25T02:37:01.977Z,6.8
2022-12-25T02:38:01.901Z,6.8
2022-12-25T02:39:01.810Z,6.8
2022-12-25T02:40:01.674Z,6.8
2022-12-25T02:41:01.651Z,6.9
2022-12-25T02:42:01.581Z,6.8
2022-12-25T02:43:01.441Z,6.7
2022-12-25T02:44:01.368Z,6.8
2022-12-25T02:45:01.322Z,6.8
2022-12-25T02:46:02.373Z,6.8
2022-12-25T02:47:02.221Z,6.8
2022-12-25T02:48:02.148Z,6.7
2022-12-25T02:49:02.103Z,6.8
2022-12-25T02:50:02.051Z,6.9
2022-12-25T02:51:01.997Z,6.8
2022-12-25T02:52:01.906Z,6.9
2022-12-25T02:53:01.827Z,6.8
2022-12-25T02:54:01.776Z,6.8
2022-12-25T02:55:01.760Z,6.9
2022-12-25T02:56:01.799Z,6.8
2022-12-25T02:57:01.731Z,6.8
2022-12-25T02:58:01.682Z,6.8
2022-12-25T02:59:01.620Z,6.8
2022-12-25T03:00:02.485Z,6.9
2022-12-25T03:01:01.360Z,6.9
2022-12-25T03:02:02.302Z,6.8
2022-12-25T03:03:01.515Z,6.8
2022-12-25T03:04:01.367Z,6.9
2022-12-25T03:05:01.287Z,6.9
2022-12-25T03:06:01.389Z,6.9
2022-12-25T03:07:02.306Z,6.7
2022-12-25T03:08:02.271Z,6.8
2022-12-25T03:09:02.189Z,6.7
2022-12-25T03:10:02.192Z,6.8
2022-12-25T03:11:02.105Z,6.9
2022-12-25T03:12:02.030Z,6.8
2022-12-25T03:13:01.912Z,6.8
2022-12-25T03:14:01.907Z,6.8
2022-12-25T03:15:01.844Z,6.8
2022-12-25T03:16:01.792Z,6.8
2022-12-25T03:17:01.583Z,6.7
2022-12-25T03:18:01.423Z,6.8
2022-12-25T03:19:01.363Z,6.9
2022-12-25T03:20:02.306Z,6.8
2022-12-25T03:21:02.253Z,6.9
2022-12-25T03:22:02.195Z,6.9
2022-12-25T03:23:02.129Z,6.8
2022-12-25T03:24:02.112Z,6.8
2022-12-25T03:25:01.987Z,6.8
2022-12-25T03:26:01.946Z,6.8
2022-12-25T03:27:01.882Z,6.9
2022-12-25T03:28:01.817Z,6.9
2022-12-25T03:29:01.768Z,6.8
2022-12-25T03:30:01.705Z,6.8
2022-12-25T03:31:01.681Z,6.8
2022-12-25T03:32:01.594Z,6.8
2022-12-25T03:33:06.362Z,6.7
2022-12-25T03:34:01.647Z,6.8
2022-12-25T03:35:01.562Z,6.9
2022-12-25T03:36:01.434Z,6.9
2022-12-25T03:37:01.361Z,6.7
2022-12-25T03:38:02.295Z,6.7
2022-12-25T03:39:02.262Z,6.7
2022-12-25T03:40:02.187Z,6.8
2022-12-25T03:41:02.157Z,6.8
2022-12-25T03:42:02.021Z,6.7
2022-12-25T03:43:01.940Z,6.7
2022-12-25T03:44:01.876Z,6.7
2022-12-25T03:45:01.727Z,6.8
2022-12-25T03:46:01.718Z,6.7
2022-12-25T03:47:01.616Z,6.7
2022-12-25T03:48:01.543Z,6.6
2022-12-25T03:49:01.420Z,6.6
2022-12-25T03:50:01.329Z,6.7
2022-12-25T03:51:02.298Z,6.7
2022-12-25T03:52:02.242Z,6.7
2022-12-25T03:53:02.159Z,6.6
2022-12-25T03:54:02.133Z,6.6
2022-12-25T03:55:02.058Z,6.7
2022-12-25T03:56:01.964Z,6.7
2022-12-25T03:57:01.883Z,6.6
2022-12-25T03:58:01.745Z,6.7
2022-12-25T03:59:01.701Z,6.6
2022-12-25T04:00:01.613Z,6.6
2022-12-25T04:01:01.552Z,6.6
2022-12-25T04:02:01.431Z,6.7
2022-12-25T04:03:01.516Z,6.7
2022-12-25T04:04:01.412Z,6.7
2022-12-25T04:05:01.359Z,6.7
2022-12-25T04:06:01.326Z,6.7
2022-12-25T04:07:01.329Z,6.7
2022-12-25T04:08:01.350Z,6.7
2022-12-25T04:09:02.278Z,6.7
2022-12-25T04:10:02.235Z,6.7
2022-12-25T04:11:02.164Z,6.7
2022-12-25T04:12:02.688Z,6.7
2022-12-25T04:13:02.053Z,6.6
2022-12-25T04:14:01.995Z,6.7
2022-12-25T04:15:01.932Z,6.7
2022-12-25T04:16:01.861Z,6.7
2022-12-25T04:17:01.797Z,6.7
2022-12-25T04:18:01.699Z,6.8
2022-12-25T04:19:01.617Z,6.7
2022-12-25T04:20:01.725Z,6.7
2022-12-25T04:21:01.678Z,6.6
2022-12-25T04:22:01.628Z,6.7
2022-12-25T04:23:01.521Z,6.7
2022-12-25T04:24:01.404Z,6.7
2022-12-25T04:25:01.344Z,6.7
2022-12-25T04:26:02.331Z,6.6
2022-12-25T04:27:02.294Z,6.7
2022-12-25T04:28:02.211Z,6.6
2022-12-25T04:29:02.156Z,6.7
2022-12-25T04:30:02.094Z,6.7
2022-12-25T04:31:01.988Z,6.6
2022-12-25T04:32:02.085Z,6.6
2022-12-25T04:33:02.020Z,6.6
2022-12-25T04:34:01.888Z,6.6
2022-12-25T04:35:01.793Z,6.6
2022-12-25T04:36:01.669Z,6.6
2022-12-25T04:37:01.602Z,6.5
2022-12-25T04:38:01.500Z,6.6
2022-12-25T04:39:01.434Z,6.6
2022-12-25T04:40:01.370Z,6.6
2022-12-25T04:41:02.298Z,6.5
2022-12-25T04:42:02.251Z,6.7
2022-12-25T04:43:02.200Z,6.6
2022-12-25T04:44:02.114Z,6.6
2022-12-25T04:45:02.061Z,6.6
2022-12-25T04:46:02.131Z,6.5
2022-12-25T04:47:04.558Z,6.5
2022-12-25T04:48:01.330Z,6.6
2022-12-25T04:49:02.314Z,6.6
2022-12-25T04:50:02.227Z,6.6
2022-12-25T04:51:02.163Z,6.6
2022-12-25T04:52:02.122Z,6.6
2022-12-25T04:53:02.038Z,6.5
2022-12-25T04:54:01.937Z,6.5
2022-12-25T04:55:01.872Z,6.5
2022-12-25T04:56:01.809Z,6.6
2022-12-25T04:57:01.734Z,6.6
2022-12-25T04:58:01.704Z,6.6
2022-12-25T04:59:01.614Z,6.6
2022-12-25T05:00:01.514Z,6.5
2022-12-25T05:01:01.398Z,6.5
2022-12-25T05:02:02.301Z,6.5
2022-12-25T05:03:01.557Z,6.5
2022-12-25T05:04:01.917Z,6.6
2022-12-25T05:05:01.849Z,6.6
2022-12-25T05:06:01.756Z,6.6
2022-12-25T05:07:01.705Z,6.6
2022-12-25T05:08:01.641Z,6.6
2022-12-25T05:09:01.588Z,6.6
2022-12-25T05:10:01.525Z,6.6
2022-12-25T05:11:01.474Z,6.6
2022-12-25T05:12:01.401Z,6.6
2022-12-25T05:13:01.356Z,6.6
2022-12-25T05:14:02.347Z,6.6
2022-12-25T05:15:01.309Z,6.5
2022-12-25T05:16:01.320Z,6.5
2022-12-25T05:17:02.167Z,6.6
2022-12-25T05:18:02.116Z,6.6
2022-12-25T05:19:02.021Z,6.5
2022-12-25T05:20:01.944Z,6.6
2022-12-25T05:21:01.886Z,6.6
2022-12-25T05:22:01.828Z,6.6
2022-12-25T05:23:01.777Z,6.6
2022-12-25T05:24:01.698Z,6.5
2022-12-25T05:25:01.671Z,6.5
2022-12-25T05:26:01.544Z,6.5
2022-12-25T05:27:01.498Z,6.5
2022-12-25T05:28:01.402Z,6.6
2022-12-25T05:29:01.361Z,6.5
2022-12-25T05:30:01.344Z,6.5
2022-12-25T05:31:02.313Z,6.5
2022-12-25T05:32:02.158Z,6.5
2022-12-25T05:33:02.029Z,6.5
2022-12-25T05:34:01.987Z,6.4
2022-12-25T05:35:01.945Z,6.4
2022-12-25T05:36:01.826Z,6.5
2022-12-25T05:37:01.699Z,6.5
2022-12-25T05:38:01.663Z,6.4
2022-12-25T05:39:01.592Z,6.3
2022-12-25T05:40:01.541Z,6.4
2022-12-25T05:41:01.450Z,6.4
2022-12-25T05:42:01.356Z,6.4
2022-12-25T05:43:01.325Z,6.4
2022-12-25T05:44:02.272Z,6.3
2022-12-25T05:45:02.265Z,6.3
2022-12-25T05:46:02.163Z,6.2
2022-12-25T05:47:02.047Z,6.3
2022-12-25T05:48:01.892Z,6.3
2022-12-25T05:49:01.775Z,6.2
2022-12-25T05:50:01.653Z,6.3
2022-12-25T05:51:01.556Z,6.2
2022-12-25T05:52:01.484Z,6.2
2022-12-25T05:53:06.039Z,6.3
2022-12-25T05:54:01.449Z,6.2
2022-12-25T05:55:01.384Z,6.2
2022-12-25T05:56:01.323Z,6.3
2022-12-25T05:57:01.352Z,6.2
2022-12-25T05:58:01.333Z,6.2
2022-12-25T05:59:01.371Z,6.2
2022-12-25T06:00:01.347Z,6.2
2022-12-25T06:01:01.350Z,6.1
2022-12-25T06:02:01.476Z,6.1
2022-12-25T06:03:01.971Z,6.2
2022-12-25T06:04:02.831Z,6.2
2022-12-25T06:05:01.571Z,6.1
2022-12-25T06:06:01.501Z,6.1
2022-12-25T06:07:01.395Z,6.1
2022-12-25T06:08:01.355Z,6.1
2022-12-25T06:09:02.305Z,6.1
2022-12-25T06:10:02.243Z,6.1
2022-12-25T06:11:02.224Z,6
2022-12-25T06:12:02.145Z,6.1
2022-12-25T06:13:02.077Z,6
2022-12-25T06:14:02.029Z,6
2022-12-25T06:15:01.946Z,6
2022-12-25T06:16:01.881Z,6
2022-12-25T06:17:02.067Z,5.9
2022-12-25T06:18:02.024Z,5.9
2022-12-25T06:19:01.976Z,5.9
2022-12-25T06:20:01.943Z,5.9
2022-12-25T06:21:01.813Z,5.9
2022-12-25T06:22:01.714Z,5.9
2022-12-25T06:23:01.704Z,5.8
2022-12-25T06:24:01.651Z,5.8
2022-12-25T06:25:01.745Z,5.8
2022-12-25T06:26:01.667Z,5.8
2022-12-25T06:27:01.577Z,5.8
2022-12-25T06:28:01.478Z,5.8
2022-12-25T06:29:01.374Z,5.8
2022-12-25T06:30:01.337Z,5.8
2022-12-25T06:31:02.243Z,5.7
2022-12-25T06:32:02.278Z,5.8
2022-12-25T06:33:02.261Z,5.8
2022-12-25T06:34:02.170Z,5.8
2022-12-25T06:35:02.152Z,5.8
2022-12-25T06:36:02.075Z,5.7
2022-12-25T06:37:02.010Z,5.7
2022-12-25T06:38:01.958Z,5.7
2022-12-25T06:39:01.883Z,5.6
2022-12-25T06:40:01.853Z,5.7
2022-12-25T06:41:01.688Z,5.5
2022-12-25T06:42:01.651Z,5.5
2022-12-25T06:43:01.570Z,5.6
2022-12-25T06:44:01.534Z,5.6
2022-12-25T06:45:01.397Z,5.7
2022-12-25T06:46:01.398Z,5.6
2022-12-25T06:47:01.326Z,5.5
2022-12-25T06:48:01.382Z,5.5
2022-12-25T06:49:02.339Z,5.6
2022-12-25T06:50:02.274Z,5.5
2022-12-25T06:51:02.249Z,5.5
2022-12-25T06:52:02.152Z,5.6
2022-12-25T06:53:02.109Z,5.5
2022-12-25T06:54:02.017Z,5.5
2022-12-25T06:55:01.975Z,5.5
2022-12-25T06:56:01.859Z,5.5
2022-12-25T06:57:01.774Z,5.5
2022-12-25T06:58:01.720Z,5.6
2022-12-25T06:59:01.638Z,5.6
2022-12-25T07:00:01.523Z,5.6
2022-12-25T07:01:01.496Z,5.6
2022-12-25T07:02:01.612Z,5.7
2022-12-25T07:03:01.862Z,5.7
2022-12-25T07:04:02.245Z,5.6
2022-12-25T07:05:02.111Z,5.7
2022-12-25T07:06:02.103Z,5.7
2022-12-25T07:07:06.349Z,5.8
2022-12-25T07:08:01.375Z,5.8
2022-12-25T07:09:02.347Z,5.7
2022-12-25T07:10:02.244Z,5.8
2022-12-25T07:11:02.238Z,5.7
2022-12-25T07:12:02.136Z,5.8
2022-12-25T07:13:02.095Z,5.8
2022-12-25T07:14:01.997Z,5.8
2022-12-25T07:15:01.897Z,6
2022-12-25T07:16:01.929Z,6.1
2022-12-25T07:17:01.788Z,6.6
2022-12-25T07:18:01.773Z,6.9
2022-12-25T07:19:01.741Z,6.7
2022-12-25T07:20:01.670Z,7.1
2022-12-25T07:21:01.615Z,6.7
2022-12-25T07:22:01.530Z,6.6
2022-12-25T07:23:01.450Z,6.5
2022-12-25T07:24:02.091Z,6.5
2022-12-25T07:25:02.031Z,6.6
2022-12-25T07:26:02.029Z,6.5
2022-12-25T07:27:01.968Z,6.8
2022-12-25T07:28:01.890Z,6.9
2022-12-25T07:29:01.799Z,7
2022-12-25T07:30:01.714Z,7.2
2022-12-25T07:31:01.670Z,7.1
2022-12-25T07:32:01.482Z,7
2022-12-25T07:33:01.673Z,7.2
2022-12-25T07:34:01.568Z,7.2
2022-12-25T07:35:01.504Z,7.2
2022-12-25T07:36:01.392Z,7.2
2022-12-25T07:37:01.414Z,7.1
2022-12-25T07:38:01.353Z,7.3
2022-12-25T07:39:02.392Z,7.2
2022-12-25T07:40:02.225Z,7.5
2022-12-25T07:41:02.251Z,7.7
2022-12-25T07:42:02.115Z,7.4
2022-12-25T07:43:02.129Z,7.2
2022-12-25T07:44:01.975Z,7.6
2022-12-25T07:45:01.886Z,7.5
2022-12-25T07:46:01.915Z,7.5
2022-12-25T07:47:01.994Z,7.4
2022-12-25T07:48:05.397Z,7.3
2022-12-25T07:49:01.816Z,7.2
2022-12-25T07:50:01.877Z,7.3
2022-12-25T07:51:01.709Z,7.2
2022-12-25T07:52:01.701Z,7.5
2022-12-25T07:53:01.467Z,7.4
2022-12-25T07:54:01.441Z,7.5
2022-12-25T07:55:01.334Z,7.6
2022-12-25T07:56:01.446Z,7.7
2022-12-25T07:57:01.330Z,7.7
2022-12-25T07:58:02.401Z,7.7
2022-12-25T07:59:02.298Z,7.8
2022-12-25T08:00:02.306Z,7.9
2022-12-25T08:01:02.162Z,7.8
2022-12-25T08:02:01.780Z,7.7
2022-12-25T08:03:01.777Z,7.8
2022-12-25T08:04:01.457Z,8
2022-12-25T08:05:01.741Z,7.8
2022-12-25T08:06:01.596Z,8
2022-12-25T08:07:01.576Z,8.1
2022-12-25T08:08:01.395Z,8.3
2022-12-25T08:09:01.403Z,8.1
2022-12-25T08:10:01.330Z,8
2022-12-25T08:11:01.393Z,8.2
2022-12-25T08:12:02.355Z,8
2022-12-25T08:13:02.269Z,8
2022-12-25T08:14:02.228Z,8.2
2022-12-25T08:15:02.119Z,8.2
2022-12-25T08:16:02.059Z,8.2
2022-12-25T08:17:01.992Z,8.2
2022-12-25T08:18:01.918Z,8.2
2022-12-25T08:19:01.939Z,8.2
2022-12-25T08:20:01.790Z,8.2
2022-12-25T08:21:01.702Z,8.1
2022-12-25T08:22:01.651Z,8.2
2022-12-25T08:23:01.542Z,8.2
2022-12-25T08:24:01.694Z,8.2
2022-12-25T08:25:01.506Z,8.5
2022-12-25T08:26:04.833Z,8.6
2022-12-25T08:27:01.484Z,8.5
2022-12-25T08:28:01.544Z,8.5
2022-12-25T08:29:01.356Z,8.7
2022-12-25T08:30:01.405Z,8.8
2022-12-25T08:31:01.439Z,8.7
2022-12-25T08:32:02.176Z,8.6
2022-12-25T08:33:02.150Z,8.7
2022-12-25T08:34:02.036Z,8.7
2022-12-25T08:35:02.197Z,8.7
2022-12-25T08:36:01.973Z,8.8
2022-12-25T08:37:02.002Z,8.8
2022-12-25T08:38:01.782Z,8.9
2022-12-25T08:39:03.200Z,9.1
2022-12-25T08:40:01.355Z,8.9
2022-12-25T08:41:01.396Z,9.1
2022-12-25T08:42:02.351Z,8.7
2022-12-25T08:43:02.204Z,9.2
2022-12-25T08:44:02.243Z,8.8
2022-12-25T08:45:02.083Z,8.5
2022-12-25T08:46:02.158Z,9
2022-12-25T08:47:02.087Z,8.7
2022-12-25T08:48:02.031Z,9
2022-12-25T08:49:02.067Z,9.1
2022-12-25T08:50:01.907Z,9
2022-12-25T08:51:01.387Z,9.2
2022-12-25T08:52:01.396Z,9.5
2022-12-25T08:53:02.356Z,9.7
2022-12-25T08:54:02.197Z,9.5
2022-12-25T08:55:02.247Z,10
2022-12-25T08:56:02.087Z,9.9
2022-12-25T08:57:03.233Z,10
2022-12-25T08:58:02.018Z,9.8
2022-12-25T08:59:01.926Z,10.1
2022-12-25T09:00:01.918Z,10.2
2022-12-25T09:01:01.894Z,10
2022-12-25T09:02:01.657Z,9.9
2022-12-25T09:03:01.976Z,10.2
2022-12-25T09:04:01.347Z,10.4
2022-12-25T09:05:02.406Z,9.9
2022-12-25T09:06:02.245Z,10.2
2022-12-25T09:07:02.280Z,10.5
2022-12-25T09:08:02.120Z,10.3
2022-12-25T09:09:02.152Z,9.8
2022-12-25T09:10:02.011Z,9.9
2022-12-25T09:11:01.909Z,9.6
2022-12-25T09:12:01.945Z,9.8
2022-12-25T09:13:01.723Z,9.5
2022-12-25T09:14:01.614Z,10.2
2022-12-25T09:15:01.676Z,10.9
2022-12-25T09:16:01.513Z,12.3
2022-12-25T09:17:01.404Z,12.3
2022-12-25T09:18:01.447Z,11.9
2022-12-25T09:19:02.368Z,10.9
2022-12-25T09:20:02.283Z,10.7
2022-12-25T09:21:02.221Z,10.5
2022-12-25T09:22:02.122Z,10.9
2022-12-25T09:23:02.165Z,11
2022-12-25T09:24:02.028Z,10.4
2022-12-25T09:25:02.070Z,10.6
2022-12-25T09:26:01.860Z,10.6
2022-12-25T09:27:01.766Z,10.1
2022-12-25T09:28:01.817Z,9.7
2022-12-25T09:29:01.634Z,10.1
2022-12-25T09:30:01.605Z,9.8
2022-12-25T09:31:01.424Z,9.9
2022-12-25T09:32:01.594Z,10
2022-12-25T09:33:01.572Z,10.2
2022-12-25T09:34:01.392Z,10.6
2022-12-25T09:35:01.489Z,10.2
2022-12-25T09:36:01.331Z,10.4
2022-12-25T09:37:01.389Z,10.6
2022-12-25T09:38:02.433Z,10.5
2022-12-25T09:39:02.289Z,10.9
2022-12-25T09:40:02.328Z,10.7
2022-12-25T09:41:02.175Z,10.9
2022-12-25T09:42:02.141Z,10.7
2022-12-25T09:43:02.044Z,10.7
2022-12-25T09:44:02.074Z,10.8
2022-12-25T09:45:01.892Z,11.3
2022-12-25T09:46:01.866Z,11.4
2022-12-25T09:47:01.977Z,11.6
2022-12-25T09:48:01.963Z,11.7
2022-12-25T09:49:01.802Z,10.9
2022-12-25T09:50:01.721Z,11.6
2022-12-25T09:51:01.758Z,11.8
2022-12-25T09:52:01.601Z,11.7
2022-12-25T09:53:01.616Z,11.5
2022-12-25T09:54:01.413Z,11.6
2022-12-25T09:55:01.451Z,11.9
2022-12-25T09:56:01.323Z,11.4
2022-12-25T09:57:01.441Z,11.8
2022-12-25T09:58:01.338Z,11.5
2022-12-25T09:59:01.449Z,11.6
2022-12-25T10:00:01.359Z,11.8
2022-12-25T10:01:01.418Z,11.5
2022-12-25T10:02:01.459Z,11.5
2022-12-25T10:03:01.887Z,11.3
2022-12-25T10:04:01.487Z,11.5
2022-12-25T10:05:01.510Z,11.7
2022-12-25T10:06:01.376Z,11.9
2022-12-25T10:07:01.466Z,12
2022-12-25T10:08:01.297Z,11.7
2022-12-25T10:09:01.435Z,11.8
2022-12-25T10:10:02.374Z,11.9
2022-12-25T10:11:02.218Z,11.8
2022-12-25T10:12:02.285Z,11.3
2022-12-25T10:13:02.112Z,11.9
2022-12-25T10:14:02.155Z,12.1
2022-12-25T10:15:02.012Z,11.6
2022-12-25T10:16:01.982Z,11.9
2022-12-25T10:17:01.926Z,11.6
2022-12-25T10:18:02.087Z,11.7
2022-12-25T10:19:01.784Z,11.3
2022-12-25T10:20:01.804Z,11.9
2022-12-25T10:21:01.732Z,12.2
2022-12-25T10:22:01.585Z,12.1
2022-12-25T10:23:01.599Z,11.7
2022-12-25T10:24:01.478Z,11.8
2022-12-25T10:25:01.503Z,11.4
2022-12-25T10:26:01.409Z,11.5
2022-12-25T10:27:02.381Z,11.3
2022-12-25T10:28:02.225Z,11.5
2022-12-25T10:29:02.269Z,11.4
2022-12-25T10:30:02.138Z,11.8
2022-12-25T10:31:02.150Z,12.3
2022-12-25T10:32:02.019Z,12.1
2022-12-25T10:33:01.918Z,12.2
2022-12-25T10:34:01.948Z,11.8
2022-12-25T10:35:01.782Z,12.5
2022-12-25T10:36:01.723Z,12.3
2022-12-25T10:37:01.747Z,12.1
2022-12-25T10:38:01.604Z,11.8
2022-12-25T10:39:01.558Z,11.7
2022-12-25T10:40:01.343Z,12
2022-12-25T10:41:02.384Z,12
2022-12-25T10:42:02.225Z,11.8
2022-12-25T10:43:02.232Z,12.6
2022-12-25T10:44:02.083Z,12.2
2022-12-25T10:45:02.121Z,12.2
2022-12-25T10:46:01.939Z,11.9
2022-12-25T10:47:01.723Z,12.4
2022-12-25T10:48:06.756Z,12.6
2022-12-25T10:49:01.664Z,12.5
2022-12-25T10:50:01.635Z,12.7
2022-12-25T10:51:01.442Z,12.7
2022-12-25T10:52:01.494Z,12.3
2022-12-25T10:53:01.329Z,12.8
2022-12-25T10:54:02.405Z,12.6
2022-12-25T10:55:02.243Z,12.5
2022-12-25T10:56:02.302Z,12.3
2022-12-25T10:57:02.131Z,12
2022-12-25T10:58:02.205Z,12.1
2022-12-25T10:59:01.987Z,12.6
2022-12-25T11:00:02.085Z,12.5
2022-12-25T11:01:01.887Z,12.7
2022-12-25T11:02:01.856Z,12.7
2022-12-25T11:03:02.168Z,12.3
2022-12-25T11:04:01.421Z,12.8
2022-12-25T11:05:01.409Z,13.1
2022-12-25T11:06:02.365Z,13.1
2022-12-25T11:07:02.215Z,12.5
2022-12-25T11:08:02.244Z,12.4
2022-12-25T11:09:02.082Z,12.9
2022-12-25T11:10:05.015Z,12.4
2022-12-25T11:11:01.723Z,13.1
2022-12-25T11:12:01.757Z,13.3
2022-12-25T11:13:01.571Z,13
2022-12-25T11:14:01.595Z,12.4
2022-12-25T11:15:01.426Z,13
2022-12-25T11:16:01.494Z,13.2
2022-12-25T11:17:02.126Z,13.5
2022-12-25T11:18:02.004Z,13.2
2022-12-25T11:19:02.122Z,13.4
2022-12-25T11:20:01.905Z,12.8
2022-12-25T11:21:01.859Z,13
2022-12-25T11:22:01.897Z,13.2
2022-12-25T11:23:01.724Z,13.6
2022-12-25T11:24:01.634Z,13.2
2022-12-25T11:25:01.635Z,12.8
2022-12-25T11:26:01.435Z,13
2022-12-25T11:27:01.519Z,12.4
2022-12-25T11:28:01.350Z,12.8
2022-12-25T11:29:02.346Z,13
2022-12-25T11:30:02.207Z,12.7
2022-12-25T11:31:02.305Z,13
2022-12-25T11:32:02.058Z,13.3
2022-12-25T11:33:02.083Z,12.4
2022-12-25T11:34:01.927Z,12.3
2022-12-25T11:35:01.845Z,13
2022-12-25T11:36:01.816Z,13.3
2022-12-25T11:37:01.640Z,12.8
2022-12-25T11:38:01.625Z,12.2
2022-12-25T11:39:01.417Z,12.5
2022-12-25T11:40:01.425Z,12.7
2022-12-25T11:41:02.382Z,12.9
2022-12-25T11:42:02.203Z,12.8
2022-12-25T11:43:05.958Z,13.4
2022-12-25T11:44:02.085Z,13.7
2022-12-25T11:45:02.140Z,13.4
2022-12-25T11:46:01.951Z,13.5
2022-12-25T11:47:01.818Z,13.9
2022-12-25T11:48:01.888Z,13.8
2022-12-25T11:49:01.679Z,14.1
2022-12-25T11:50:01.633Z,13.9
2022-12-25T11:51:01.456Z,13.4
2022-12-25T11:52:01.498Z,13.9
2022-12-25T11:53:01.355Z,13.7
2022-12-25T11:54:01.385Z,13.1
2022-12-25T11:55:02.395Z,12.9
2022-12-25T11:56:02.216Z,12.5
2022-12-25T11:57:02.267Z,12.9
2022-12-25T11:58:02.152Z,13
2022-12-25T11:59:02.152Z,13
2022-12-25T12:00:01.997Z,13.1
2022-12-25T12:01:01.889Z,12.9
2022-12-25T12:02:02.031Z,13.6
2022-12-25T12:03:02.327Z,13.6
2022-12-25T12:04:01.489Z,13.5
2022-12-25T12:05:01.508Z,12.8
2022-12-25T12:06:01.357Z,13.4
2022-12-25T12:07:02.413Z,13.7
2022-12-25T12:08:02.251Z,13
2022-12-25T12:09:02.285Z,13
2022-12-25T12:10:02.155Z,12.9
2022-12-25T12:11:02.159Z,13.3
2022-12-25T12:12:02.014Z,13.1
2022-12-25T12:13:01.893Z,13.1
2022-12-25T12:14:01.854Z,13.2
2022-12-25T12:15:01.730Z,13.1
2022-12-25T12:16:01.703Z,13.1
2022-12-25T12:17:01.789Z,12.9
2022-12-25T12:18:01.780Z,12.9
2022-12-25T12:19:01.617Z,13
2022-12-25T12:20:01.612Z,12.9
2022-12-25T12:21:01.475Z,13
2022-12-25T12:22:01.376Z,13
2022-12-25T12:23:02.398Z,12.5
2022-12-25T12:24:02.239Z,12.7
2022-12-25T12:25:02.271Z,12.4
2022-12-25T12:26:02.111Z,13
2022-12-25T12:27:02.128Z,13
2022-12-25T12:28:05.522Z,12.9
2022-12-25T12:29:01.762Z,13.2
2022-12-25T12:30:01.794Z,13.5
2022-12-25T12:31:01.596Z,13.5
2022-12-25T12:32:01.566Z,13.2
2022-12-25T12:33:01.598Z,13.5
2022-12-25T12:34:01.391Z,13.2
2022-12-25T12:35:01.427Z,13.2
2022-12-25T12:36:01.352Z,13.5
2022-12-25T12:37:02.350Z,13.1
2022-12-25T12:38:02.239Z,13.5
2022-12-25T12:39:02.288Z,13.7
2022-12-25T12:40:02.133Z,13.2
2022-12-25T12:41:02.165Z,13
2022-12-25T12:42:01.983Z,13.6
2022-12-25T12:43:01.904Z,13.8
2022-12-25T12:44:02.012Z,13.7
2022-12-25T12:45:01.898Z,13.6
2022-12-25T12:46:01.798Z,13.3
2022-12-25T12:47:01.919Z,12.7
2022-12-25T12:48:01.923Z,12.5
2022-12-25T12:49:01.675Z,13
2022-12-25T12:50:01.695Z,12.8
2022-12-25T12:51:01.531Z,12.9
2022-12-25T12:52:01.523Z,12.6
2022-12-25T12:53:01.336Z,12.8
2022-12-25T12:54:02.396Z,12.9
2022-12-25T12:55:02.246Z,13
2022-12-25T12:56:02.305Z,12.5
2022-12-25T12:57:02.201Z,12.8
2022-12-25T12:58:02.208Z,12.9
2022-12-25T12:59:02.042Z,13.1
2022-12-25T13:00:08.873Z,13.3
2022-12-25T13:01:01.833Z,13.2
2022-12-25T13:02:01.876Z,13.2
2022-12-25T13:03:02.575Z,12.9
2022-12-25T13:04:01.750Z,12.9
2022-12-25T13:05:01.721Z,12.8
2022-12-25T13:06:01.579Z,13
2022-12-25T13:07:01.597Z,12.6
2022-12-25T13:08:01.421Z,13.3
2022-12-25T13:09:01.409Z,13
2022-12-25T13:10:02.395Z,12.6
2022-12-25T13:11:02.324Z,13
2022-12-25T13:12:02.194Z,13
2022-12-25T13:13:02.110Z,13.2
2022-12-25T13:14:02.148Z,12.6
2022-12-25T13:15:01.989Z,12.1
2022-12-25T13:16:01.979Z,11.9
2022-12-25T13:17:01.983Z,12.5
2022-12-25T13:18:01.988Z,12.2
2022-12-25T13:19:01.928Z,11.8
2022-12-25T13:20:01.878Z,12.1
2022-12-25T13:21:01.968Z,12.8
2022-12-25T13:22:01.855Z,12.6
2022-12-25T13:23:01.702Z,12.4
2022-12-25T13:24:01.743Z,12.3
2022-12-25T13:25:01.522Z,13
2022-12-25T13:26:01.525Z,13
2022-12-25T13:27:01.361Z,12.5
2022-12-25T13:28:01.472Z,12.4
2022-12-25T13:29:06.432Z,12
2022-12-25T13:30:01.356Z,12.6
2022-12-25T13:31:01.433Z,12
2022-12-25T13:32:02.167Z,12
2022-12-25T13:33:02.379Z,11.9
2022-12-25T13:34:02.310Z,12.5
2022-12-25T13:35:02.130Z,12.4
2022-12-25T13:36:02.180Z,12.4
2022-12-25T13:37:01.935Z,12.2
2022-12-25T13:38:01.982Z,12.2
2022-12-25T13:39:01.879Z,12.3
2022-12-25T13:40:01.790Z,12.4
2022-12-25T13:41:01.742Z,12.6
2022-12-25T13:42:01.603Z,12.1
2022-12-25T13:43:01.602Z,12.3